sensor_id;sensor_type;location;lat;lon;timestamp;P1;durP1;ratioP1;P2;durP2;ratioP2
84023;SDS011;74109;45.636;25.582;2024-02-21T00:00:20;23.60;;;10.20;;
84023;SDS011;74109;45.636;25.582;2024-02-21T00:03:08;34.30;;;14.60;;
84023;SDS011;74109;45.636;25.582;2024-02-21T00:05:36;42.00;;;15.60;;
84023;SDS011;74109;45.636;25.582;2024-02-21T00:08:05;30.00;;;11.60;;
84023;SDS011;74109;45.636;25.582;2024-02-21T00:10:33;24.60;;;11.10;;
84023;SDS011;74109;45.636;25.582;2024-02-21T00:13:03;23.40;;;9.50;;
84023;SDS011;74109;45.636;25.582;2024-02-21T00:15:31;23.10;;;9.70;;
84023;SDS011;74109;45.636;25.582;2024-02-21T00:17:59;26.00;;;11.10;;
84023;SDS011;74109;45.636;25.582;2024-02-21T00:20:28;30.40;;;12.00;;
84023;SDS011;74109;45.636;25.582;2024-02-21T00:22:56;32.20;;;11.80;;
84023;SDS011;74109;45.636;25.582;2024-02-21T00:25:24;23.30;;;10.20;;
84023;SDS011;74109;45.636;25.582;2024-02-21T00:27:53;28.70;;;11.10;;
84023;SDS011;74109;45.636;25.582;2024-02-21T00:30:21;21.50;;;8.30;;
84023;SDS011;74109;45.636;25.582;2024-02-21T00:32:49;23.80;;;9.50;;
84023;SDS011;74109;45.636;25.582;2024-02-21T00:35:18;15.40;;;6.70;;
84023;SDS011;74109;45.636;25.582;2024-02-21T00:37:47;15.40;;;7.10;;
84023;SDS011;74109;45.636;25.582;2024-02-21T00:40:15;18.20;;;7.90;;
84023;SDS011;74109;45.636;25.582;2024-02-21T00:42:48;19.60;;;8.80;;
84023;SDS011;74109;45.636;25.582;2024-02-21T00:45:16;14.70;;;6.10;;
84023;SDS011;74109;45.636;25.582;2024-02-21T00:47:45;25.50;;;10.00;;
84023;SDS011;74109;45.636;25.582;2024-02-21T00:50:13;23.90;;;9.90;;
84023;SDS011;74109;45.636;25.582;2024-02-21T00:52:42;15.80;;;7.30;;
84023;SDS011;74109;45.636;25.582;2024-02-21T00:55:11;23.30;;;10.30;;
84023;SDS011;74109;45.636;25.582;2024-02-21T00:57:42;23.80;;;10.40;;
84023;SDS011;74109;45.636;25.582;2024-02-21T01:00:10;24.00;;;10.30;;
84023;SDS011;74109;45.636;25.582;2024-02-21T01:02:42;22.90;;;8.80;;
84023;SDS011;74109;45.636;25.582;2024-02-21T01:05:11;16.40;;;7.40;;
84023;SDS011;74109;45.636;25.582;2024-02-21T01:07:39;15.80;;;6.30;;
84023;SDS011;74109;45.636;25.582;2024-02-21T01:10:08;18.00;;;8.40;;
84023;SDS011;74109;45.636;25.582;2024-02-21T01:12:36;20.10;;;8.20;;
84023;SDS011;74109;45.636;25.582;2024-02-21T01:15:05;18.10;;;7.80;;
84023;SDS011;74109;45.636;25.582;2024-02-21T01:17:33;17.40;;;7.30;;
84023;SDS011;74109;45.636;25.582;2024-02-21T01:20:02;31.30;;;10.90;;
84023;SDS011;74109;45.636;25.582;2024-02-21T01:22:33;23.30;;;9.70;;
84023;SDS011;74109;45.636;25.582;2024-02-21T01:25:01;15.60;;;7.00;;
84023;SDS011;74109;45.636;25.582;2024-02-21T01:27:29;16.90;;;7.30;;
84023;SDS011;74109;45.636;25.582;2024-02-21T01:30:01;17.80;;;6.00;;
84023;SDS011;74109;45.636;25.582;2024-02-21T01:32:29;10.70;;;4.30;;
84023;SDS011;74109;45.636;25.582;2024-02-21T01:34:57;17.80;;;7.30;;
84023;SDS011;74109;45.636;25.582;2024-02-21T01:37:25;17.60;;;8.00;;
84023;SDS011;74109;45.636;25.582;2024-02-21T01:39:54;11.80;;;4.80;;
84023;SDS011;74109;45.636;25.582;2024-02-21T01:42:22;16.00;;;6.70;;
84023;SDS011;74109;45.636;25.582;2024-02-21T01:44:50;19.50;;;8.50;;
84023;SDS011;74109;45.636;25.582;2024-02-21T01:47:19;13.50;;;5.90;;
84023;SDS011;74109;45.636;25.582;2024-02-21T01:49:49;10.60;;;5.20;;
84023;SDS011;74109;45.636;25.582;2024-02-21T01:52:17;17.50;;;5.90;;
84023;SDS011;74109;45.636;25.582;2024-02-21T01:54:46;14.10;;;5.20;;
84023;SDS011;74109;45.636;25.582;2024-02-21T01:57:15;11.60;;;4.90;;
84023;SDS011;74109;45.636;25.582;2024-02-21T01:59:44;13.40;;;5.20;;
84023;SDS011;74109;45.636;25.582;2024-02-21T02:02:12;10.70;;;4.40;;
84023;SDS011;74109;45.636;25.582;2024-02-21T02:04:41;13.20;;;5.50;;
84023;SDS011;74109;45.636;25.582;2024-02-21T02:07:10;14.80;;;6.30;;
84023;SDS011;74109;45.636;25.582;2024-02-21T02:09:38;11.40;;;4.60;;
84023;SDS011;74109;45.636;25.582;2024-02-21T02:12:07;23.60;;;12.00;;
84023;SDS011;74109;45.636;25.582;2024-02-21T02:14:35;39.30;;;18.10;;
84023;SDS011;74109;45.636;25.582;2024-02-21T02:17:04;39.40;;;16.70;;
84023;SDS011;74109;45.636;25.582;2024-02-21T02:19:33;28.30;;;11.60;;
84023;SDS011;74109;45.636;25.582;2024-02-21T02:22:12;37.40;;;15.90;;
84023;SDS011;74109;45.636;25.582;2024-02-21T02:24:46;37.10;;;15.20;;
84023;SDS011;74109;45.636;25.582;2024-02-21T02:27:14;34.60;;;15.30;;
84023;SDS011;74109;45.636;25.582;2024-02-21T02:29:42;40.40;;;17.10;;
84023;SDS011;74109;45.636;25.582;2024-02-21T02:32:11;33.90;;;14.40;;
84023;SDS011;74109;45.636;25.582;2024-02-21T02:34:39;36.00;;;14.50;;
84023;SDS011;74109;45.636;25.582;2024-02-21T02:37:08;37.10;;;15.60;;
84023;SDS011;74109;45.636;25.582;2024-02-21T02:39:36;43.30;;;16.20;;
84023;SDS011;74109;45.636;25.582;2024-02-21T02:42:04;31.20;;;13.30;;
84023;SDS011;74109;45.636;25.582;2024-02-21T02:44:33;39.40;;;16.80;;
84023;SDS011;74109;45.636;25.582;2024-02-21T02:47:01;32.80;;;13.80;;
84023;SDS011;74109;45.636;25.582;2024-02-21T02:49:29;22.40;;;9.80;;
84023;SDS011;74109;45.636;25.582;2024-02-21T02:51:57;21.30;;;7.80;;
84023;SDS011;74109;45.636;25.582;2024-02-21T02:54:26;17.90;;;7.40;;
84023;SDS011;74109;45.636;25.582;2024-02-21T02:56:54;15.10;;;6.60;;
84023;SDS011;74109;45.636;25.582;2024-02-21T02:59:22;19.30;;;7.50;;
84023;SDS011;74109;45.636;25.582;2024-02-21T03:01:50;10.70;;;4.80;;
84023;SDS011;74109;45.636;25.582;2024-02-21T03:04:19;12.30;;;5.30;;
84023;SDS011;74109;45.636;25.582;2024-02-21T03:06:47;18.30;;;7.10;;
84023;SDS011;74109;45.636;25.582;2024-02-21T03:09:15;17.00;;;6.50;;
84023;SDS011;74109;45.636;25.582;2024-02-21T03:11:43;15.60;;;6.60;;
84023;SDS011;74109;45.636;25.582;2024-02-21T03:14:12;18.90;;;7.00;;
84023;SDS011;74109;45.636;25.582;2024-02-21T03:16:40;19.30;;;7.60;;
84023;SDS011;74109;45.636;25.582;2024-02-21T03:19:08;19.90;;;7.70;;
84023;SDS011;74109;45.636;25.582;2024-02-21T03:21:37;21.20;;;8.60;;
84023;SDS011;74109;45.636;25.582;2024-02-21T03:24:05;25.90;;;10.60;;
84023;SDS011;74109;45.636;25.582;2024-02-21T03:26:33;26.60;;;9.70;;
84023;SDS011;74109;45.636;25.582;2024-02-21T03:29:01;27.10;;;10.80;;
84023;SDS011;74109;45.636;25.582;2024-02-21T03:31:30;28.10;;;10.70;;
84023;SDS011;74109;45.636;25.582;2024-02-21T03:33:59;29.90;;;11.80;;
84023;SDS011;74109;45.636;25.582;2024-02-21T03:36:28;30.50;;;12.10;;
84023;SDS011;74109;45.636;25.582;2024-02-21T03:38:56;23.20;;;9.00;;
84023;SDS011;74109;45.636;25.582;2024-02-21T03:41:25;17.40;;;6.60;;
84023;SDS011;74109;45.636;25.582;2024-02-21T03:43:53;28.00;;;10.10;;
84023;SDS011;74109;45.636;25.582;2024-02-21T03:46:23;30.80;;;11.10;;
84023;SDS011;74109;45.636;25.582;2024-02-21T03:48:52;28.30;;;12.40;;
84023;SDS011;74109;45.636;25.582;2024-02-21T03:51:21;23.40;;;9.70;;
84023;SDS011;74109;45.636;25.582;2024-02-21T03:53:49;21.20;;;9.40;;
84023;SDS011;74109;45.636;25.582;2024-02-21T03:56:18;22.60;;;9.10;;
84023;SDS011;74109;45.636;25.582;2024-02-21T03:58:46;19.00;;;8.00;;
84023;SDS011;74109;45.636;25.582;2024-02-21T04:01:15;17.10;;;6.50;;
84023;SDS011;74109;45.636;25.582;2024-02-21T04:03:44;17.00;;;7.20;;
84023;SDS011;74109;45.636;25.582;2024-02-21T04:06:12;12.10;;;5.40;;
84023;SDS011;74109;45.636;25.582;2024-02-21T04:08:40;9.50;;;4.00;;
84023;SDS011;74109;45.636;25.582;2024-02-21T04:11:09;14.20;;;4.90;;
84023;SDS011;74109;45.636;25.582;2024-02-21T04:13:37;17.60;;;6.80;;
84023;SDS011;74109;45.636;25.582;2024-02-21T04:16:05;14.30;;;6.00;;
84023;SDS011;74109;45.636;25.582;2024-02-21T04:18:34;16.60;;;6.50;;
84023;SDS011;74109;45.636;25.582;2024-02-21T04:21:02;14.70;;;5.70;;
84023;SDS011;74109;45.636;25.582;2024-02-21T04:23:30;14.30;;;6.20;;
84023;SDS011;74109;45.636;25.582;2024-02-21T04:25:58;15.90;;;7.10;;
84023;SDS011;74109;45.636;25.582;2024-02-21T04:28:27;17.70;;;6.60;;
84023;SDS011;74109;45.636;25.582;2024-02-21T04:30:55;13.50;;;5.40;;
84023;SDS011;74109;45.636;25.582;2024-02-21T04:33:23;16.90;;;6.70;;
84023;SDS011;74109;45.636;25.582;2024-02-21T04:35:51;13.10;;;4.60;;
84023;SDS011;74109;45.636;25.582;2024-02-21T04:40:50;10.10;;;4.00;;
84023;SDS011;74109;45.636;25.582;2024-02-21T04:43:18;17.50;;;5.30;;
84023;SDS011;74109;45.636;25.582;2024-02-21T04:45:46;9.70;;;4.30;;
84023;SDS011;74109;45.636;25.582;2024-02-21T04:48:14;17.50;;;7.50;;
84023;SDS011;74109;45.636;25.582;2024-02-21T04:50:43;17.00;;;7.30;;
84023;SDS011;74109;45.636;25.582;2024-02-21T04:53:11;21.30;;;7.70;;
84023;SDS011;74109;45.636;25.582;2024-02-21T04:55:39;16.20;;;6.70;;
84023;SDS011;74109;45.636;25.582;2024-02-21T04:58:08;14.00;;;6.40;;
84023;SDS011;74109;45.636;25.582;2024-02-21T05:00:36;19.60;;;8.00;;
84023;SDS011;74109;45.636;25.582;2024-02-21T05:03:04;12.70;;;5.10;;
84023;SDS011;74109;45.636;25.582;2024-02-21T05:05:32;12.00;;;5.00;;
84023;SDS011;74109;45.636;25.582;2024-02-21T05:08:01;14.80;;;5.90;;
84023;SDS011;74109;45.636;25.582;2024-02-21T05:10:29;12.90;;;5.10;;
84023;SDS011;74109;45.636;25.582;2024-02-21T05:12:58;11.80;;;4.50;;
84023;SDS011;74109;45.636;25.582;2024-02-21T05:15:26;14.30;;;5.70;;
84023;SDS011;74109;45.636;25.582;2024-02-21T05:17:54;9.80;;;4.70;;
84023;SDS011;74109;45.636;25.582;2024-02-21T05:20:23;17.70;;;6.60;;
84023;SDS011;74109;45.636;25.582;2024-02-21T05:22:51;20.80;;;8.70;;
84023;SDS011;74109;45.636;25.582;2024-02-21T05:25:19;21.70;;;8.50;;
84023;SDS011;74109;45.636;25.582;2024-02-21T05:27:50;18.20;;;9.00;;
84023;SDS011;74109;45.636;25.582;2024-02-21T05:30:21;24.20;;;9.50;;
84023;SDS011;74109;45.636;25.582;2024-02-21T05:32:50;24.60;;;10.50;;
84023;SDS011;74109;45.636;25.582;2024-02-21T05:35:18;16.40;;;7.60;;
84023;SDS011;74109;45.636;25.582;2024-02-21T05:37:50;18.10;;;8.00;;
84023;SDS011;74109;45.636;25.582;2024-02-21T05:40:21;15.30;;;6.40;;
84023;SDS011;74109;45.636;25.582;2024-02-21T05:42:50;21.70;;;9.70;;
84023;SDS011;74109;45.636;25.582;2024-02-21T05:45:28;21.30;;;8.50;;
84023;SDS011;74109;45.636;25.582;2024-02-21T05:48:03;26.60;;;12.40;;
84023;SDS011;74109;45.636;25.582;2024-02-21T05:50:33;31.90;;;12.30;;
84023;SDS011;74109;45.636;25.582;2024-02-21T05:53:01;34.30;;;12.30;;
84023;SDS011;74109;45.636;25.582;2024-02-21T05:55:32;29.50;;;11.90;;
84023;SDS011;74109;45.636;25.582;2024-02-21T05:58:03;27.60;;;10.10;;
84023;SDS011;74109;45.636;25.582;2024-02-21T06:00:43;22.30;;;9.80;;
84023;SDS011;74109;45.636;25.582;2024-02-21T06:03:21;20.20;;;9.10;;
84023;SDS011;74109;45.636;25.582;2024-02-21T06:06:20;14.20;;;5.70;;
84023;SDS011;74109;45.636;25.582;2024-02-21T06:09:43;11.70;;;4.90;;
84023;SDS011;74109;45.636;25.582;2024-02-21T06:15:46;14.70;;;5.10;;
84023;SDS011;74109;45.636;25.582;2024-02-21T06:19:00;20.20;;;7.40;;
84023;SDS011;74109;45.636;25.582;2024-02-21T06:21:38;23.40;;;8.60;;
84023;SDS011;74109;45.636;25.582;2024-02-21T06:25:19;26.60;;;9.10;;
84023;SDS011;74109;45.636;25.582;2024-02-21T06:28:08;22.30;;;8.30;;
84023;SDS011;74109;45.636;25.582;2024-02-21T06:30:39;18.50;;;8.20;;
84023;SDS011;74109;45.636;25.582;2024-02-21T06:36:09;25.30;;;9.60;;
84023;SDS011;74109;45.636;25.582;2024-02-21T06:38:43;23.80;;;9.00;;
84023;SDS011;74109;45.636;25.582;2024-02-21T06:41:15;20.90;;;8.90;;
84023;SDS011;74109;45.636;25.582;2024-02-21T06:43:49;21.60;;;9.20;;
84023;SDS011;74109;45.636;25.582;2024-02-21T06:49:51;18.50;;;7.30;;
84023;SDS011;74109;45.636;25.582;2024-02-21T06:52:51;27.50;;;10.10;;
84023;SDS011;74109;45.636;25.582;2024-02-21T06:55:35;34.50;;;11.50;;
84023;SDS011;74109;45.636;25.582;2024-02-21T07:01:58;28.70;;;10.90;;
84023;SDS011;74109;45.636;25.582;2024-02-21T07:10:23;25.10;;;9.10;;
84023;SDS011;74109;45.636;25.582;2024-02-21T07:13:37;17.40;;;7.70;;
84023;SDS011;74109;45.636;25.582;2024-02-21T07:16:36;24.80;;;8.80;;
84023;SDS011;74109;45.636;25.582;2024-02-21T07:20:01;21.70;;;8.10;;
84023;SDS011;74109;45.636;25.582;2024-02-21T07:23:04;19.50;;;7.90;;
84023;SDS011;74109;45.636;25.582;2024-02-21T07:26:03;20.30;;;7.90;;
84023;SDS011;74109;45.636;25.582;2024-02-21T07:29:35;37.30;;;13.60;;
84023;SDS011;74109;45.636;25.582;2024-02-21T07:32:22;57.50;;;19.40;;
84023;SDS011;74109;45.636;25.582;2024-02-21T07:35:08;42.50;;;19.90;;
84023;SDS011;74109;45.636;25.582;2024-02-21T07:41:27;36.60;;;15.20;;
84023;SDS011;74109;45.636;25.582;2024-02-21T07:44:23;42.00;;;20.00;;
84023;SDS011;74109;45.636;25.582;2024-02-21T07:47:05;26.50;;;11.20;;
84023;SDS011;74109;45.636;25.582;2024-02-21T07:49:43;25.70;;;11.70;;
84023;SDS011;74109;45.636;25.582;2024-02-21T07:52:14;40.00;;;18.40;;
84023;SDS011;74109;45.636;25.582;2024-02-21T07:55:16;44.70;;;19.60;;
84023;SDS011;74109;45.636;25.582;2024-02-21T07:57:49;36.90;;;15.70;;
84023;SDS011;74109;45.636;25.582;2024-02-21T08:00:45;43.70;;;17.90;;
84023;SDS011;74109;45.636;25.582;2024-02-21T08:03:27;40.80;;;16.50;;
84023;SDS011;74109;45.636;25.582;2024-02-21T08:06:19;40.70;;;17.50;;
84023;SDS011;74109;45.636;25.582;2024-02-21T08:10:39;42.60;;;18.10;;
84023;SDS011;74109;45.636;25.582;2024-02-21T08:13:40;39.70;;;16.80;;
84023;SDS011;74109;45.636;25.582;2024-02-21T08:16:55;41.10;;;17.30;;
84023;SDS011;74109;45.636;25.582;2024-02-21T08:23:03;40.40;;;15.90;;
84023;SDS011;74109;45.636;25.582;2024-02-21T08:25:48;40.80;;;18.50;;
84023;SDS011;74109;45.636;25.582;2024-02-21T08:28:48;34.30;;;13.80;;
84023;SDS011;74109;45.636;25.582;2024-02-21T08:31:21;25.90;;;12.10;;
84023;SDS011;74109;45.636;25.582;2024-02-21T08:34:02;29.90;;;14.00;;
84023;SDS011;74109;45.636;25.582;2024-02-21T08:36:32;33.20;;;13.30;;
84023;SDS011;74109;45.636;25.582;2024-02-21T08:39:02;51.30;;;21.90;;
84023;SDS011;74109;45.636;25.582;2024-02-21T08:41:36;37.60;;;16.50;;
84023;SDS011;74109;45.636;25.582;2024-02-21T08:44:27;43.20;;;20.30;;
84023;SDS011;74109;45.636;25.582;2024-02-21T08:46:58;32.10;;;15.30;;
84023;SDS011;74109;45.636;25.582;2024-02-21T08:49:32;34.80;;;13.30;;
84023;SDS011;74109;45.636;25.582;2024-02-21T08:52:19;31.30;;;14.90;;
84023;SDS011;74109;45.636;25.582;2024-02-21T08:54:55;40.20;;;16.10;;
84023;SDS011;74109;45.636;25.582;2024-02-21T08:57:34;39.20;;;16.80;;
84023;SDS011;74109;45.636;25.582;2024-02-21T09:00:15;34.30;;;14.00;;
84023;SDS011;74109;45.636;25.582;2024-02-21T09:03:11;35.20;;;16.90;;
84023;SDS011;74109;45.636;25.582;2024-02-21T09:06:13;40.40;;;16.70;;
84023;SDS011;74109;45.636;25.582;2024-02-21T09:10:14;37.80;;;15.50;;
84023;SDS011;74109;45.636;25.582;2024-02-21T09:13:03;40.00;;;15.90;;
84023;SDS011;74109;45.636;25.582;2024-02-21T09:17:37;30.90;;;13.80;;
84023;SDS011;74109;45.636;25.582;2024-02-21T09:21:15;31.70;;;13.60;;
84023;SDS011;74109;45.636;25.582;2024-02-21T09:24:37;31.60;;;13.20;;
84023;SDS011;74109;45.636;25.582;2024-02-21T09:27:14;32.10;;;13.80;;
84023;SDS011;74109;45.636;25.582;2024-02-21T09:29:55;37.50;;;15.20;;
84023;SDS011;74109;45.636;25.582;2024-02-21T09:32:45;34.70;;;16.20;;
84023;SDS011;74109;45.636;25.582;2024-02-21T09:35:38;32.60;;;15.20;;
84023;SDS011;74109;45.636;25.582;2024-02-21T09:41:32;31.10;;;13.50;;
84023;SDS011;74109;45.636;25.582;2024-02-21T09:44:24;34.00;;;15.60;;
84023;SDS011;74109;45.636;25.582;2024-02-21T09:47:22;31.80;;;14.00;;
84023;SDS011;74109;45.636;25.582;2024-02-21T09:50:21;28.10;;;12.40;;
84023;SDS011;74109;45.636;25.582;2024-02-21T09:53:15;30.20;;;12.90;;
84023;SDS011;74109;45.636;25.582;2024-02-21T10:02:21;22.10;;;9.20;;
84023;SDS011;74109;45.636;25.582;2024-02-21T10:05:52;17.70;;;7.10;;
84023;SDS011;74109;45.636;25.582;2024-02-21T10:25:35;8.20;;;3.60;;
84023;SDS011;74109;45.636;25.582;2024-02-21T10:28:20;8.70;;;3.50;;
84023;SDS011;74109;45.636;25.582;2024-02-21T10:35:45;12.00;;;4.80;;
84023;SDS011;74109;45.636;25.582;2024-02-21T10:38:30;10.10;;;4.50;;
84023;SDS011;74109;45.636;25.582;2024-02-21T10:41:16;9.60;;;4.70;;
84023;SDS011;74109;45.636;25.582;2024-02-21T10:43:59;12.10;;;5.40;;
84023;SDS011;74109;45.636;25.582;2024-02-21T10:46:46;11.60;;;5.00;;
84023;SDS011;74109;45.636;25.582;2024-02-21T10:49:23;11.20;;;5.40;;
84023;SDS011;74109;45.636;25.582;2024-02-21T10:55:13;14.70;;;5.60;;
84023;SDS011;74109;45.636;25.582;2024-02-21T10:58:11;11.80;;;5.40;;
84023;SDS011;74109;45.636;25.582;2024-02-21T11:01:00;10.40;;;4.70;;
84023;SDS011;74109;45.636;25.582;2024-02-21T11:03:53;10.90;;;5.40;;
84023;SDS011;74109;45.636;25.582;2024-02-21T11:07:21;14.40;;;6.40;;
84023;SDS011;74109;45.636;25.582;2024-02-21T11:13:51;19.10;;;8.40;;
84023;SDS011;74109;45.636;25.582;2024-02-21T11:23:26;18.50;;;6.40;;
84023;SDS011;74109;45.636;25.582;2024-02-21T11:26:10;17.50;;;6.60;;
84023;SDS011;74109;45.636;25.582;2024-02-21T11:29:09;17.00;;;6.80;;
84023;SDS011;74109;45.636;25.582;2024-02-21T11:31:43;42.20;;;13.70;;
84023;SDS011;74109;45.636;25.582;2024-02-21T11:34:22;38.60;;;13.00;;
84023;SDS011;74109;45.636;25.582;2024-02-21T11:36:56;65.70;;;20.10;;
84023;SDS011;74109;45.636;25.582;2024-02-21T11:39:28;32.70;;;12.10;;
84023;SDS011;74109;45.636;25.582;2024-02-21T11:42:21;28.90;;;11.30;;
84023;SDS011;74109;45.636;25.582;2024-02-21T11:45:06;42.50;;;13.60;;
84023;SDS011;74109;45.636;25.582;2024-02-21T11:47:42;37.50;;;13.40;;
84023;SDS011;74109;45.636;25.582;2024-02-21T11:50:16;25.50;;;10.10;;
84023;SDS011;74109;45.636;25.582;2024-02-21T11:53:07;19.40;;;8.30;;
84023;SDS011;74109;45.636;25.582;2024-02-21T11:55:37;15.30;;;6.70;;
84023;SDS011;74109;45.636;25.582;2024-02-21T11:58:04;15.40;;;5.80;;
84023;SDS011;74109;45.636;25.582;2024-02-21T12:00:32;17.20;;;7.50;;
84023;SDS011;74109;45.636;25.582;2024-02-21T12:03:03;33.70;;;11.30;;
84023;SDS011;74109;45.636;25.582;2024-02-21T12:05:38;20.50;;;7.00;;
84023;SDS011;74109;45.636;25.582;2024-02-21T12:08:28;26.60;;;8.80;;
84023;SDS011;74109;45.636;25.582;2024-02-21T12:11:26;16.60;;;6.80;;
84023;SDS011;74109;45.636;25.582;2024-02-21T12:16:57;8.50;;;3.70;;
84023;SDS011;74109;45.636;25.582;2024-02-21T12:19:58;8.70;;;4.30;;
84023;SDS011;74109;45.636;25.582;2024-02-21T12:23:19;24.20;;;10.50;;
84023;SDS011;74109;45.636;25.582;2024-02-21T12:26:07;25.90;;;9.70;;
84023;SDS011;74109;45.636;25.582;2024-02-21T12:28:53;16.50;;;7.20;;
84023;SDS011;74109;45.636;25.582;2024-02-21T12:31:39;24.30;;;9.50;;
84023;SDS011;74109;45.636;25.582;2024-02-21T12:34:36;16.00;;;7.20;;
84023;SDS011;74109;45.636;25.582;2024-02-21T12:37:22;24.90;;;10.80;;
84023;SDS011;74109;45.636;25.582;2024-02-21T12:39:53;20.90;;;7.20;;
84023;SDS011;74109;45.636;25.582;2024-02-21T12:42:20;10.90;;;4.90;;
84023;SDS011;74109;45.636;25.582;2024-02-21T12:44:51;11.10;;;5.30;;
84023;SDS011;74109;45.636;25.582;2024-02-21T12:47:21;16.80;;;6.10;;
84023;SDS011;74109;45.636;25.582;2024-02-21T12:49:53;15.00;;;6.50;;
84023;SDS011;74109;45.636;25.582;2024-02-21T12:52:23;12.30;;;4.70;;
84023;SDS011;74109;45.636;25.582;2024-02-21T12:54:54;12.40;;;5.10;;
84023;SDS011;74109;45.636;25.582;2024-02-21T12:57:29;11.20;;;4.80;;
84023;SDS011;74109;45.636;25.582;2024-02-21T12:59:56;12.20;;;5.20;;
84023;SDS011;74109;45.636;25.582;2024-02-21T13:02:26;9.30;;;4.00;;
84023;SDS011;74109;45.636;25.582;2024-02-21T13:04:54;13.40;;;6.00;;
84023;SDS011;74109;45.636;25.582;2024-02-21T13:07:21;14.00;;;6.60;;
84023;SDS011;74109;45.636;25.582;2024-02-21T13:09:55;9.00;;;4.60;;
84023;SDS011;74109;45.636;25.582;2024-02-21T13:12:22;12.20;;;5.60;;
84023;SDS011;74109;45.636;25.582;2024-02-21T13:14:54;10.30;;;5.10;;
84023;SDS011;74109;45.636;25.582;2024-02-21T13:17:25;13.30;;;6.20;;
84023;SDS011;74109;45.636;25.582;2024-02-21T13:19:58;10.60;;;4.60;;
84023;SDS011;74109;45.636;25.582;2024-02-21T13:22:27;10.70;;;3.70;;
84023;SDS011;74109;45.636;25.582;2024-02-21T13:24:54;10.80;;;3.30;;
84023;SDS011;74109;45.636;25.582;2024-02-21T13:27:25;35.10;;;10.50;;
84023;SDS011;74109;45.636;25.582;2024-02-21T13:29:54;18.20;;;6.00;;
84023;SDS011;74109;45.636;25.582;2024-02-21T13:32:22;12.00;;;5.60;;
84023;SDS011;74109;45.636;25.582;2024-02-21T13:34:50;41.20;;;13.80;;
84023;SDS011;74109;45.636;25.582;2024-02-21T13:37:22;25.80;;;9.80;;
84023;SDS011;74109;45.636;25.582;2024-02-21T13:39:50;15.30;;;6.70;;
84023;SDS011;74109;45.636;25.582;2024-02-21T13:42:17;11.90;;;6.00;;
84023;SDS011;74109;45.636;25.582;2024-02-21T13:44:44;12.10;;;5.80;;
84023;SDS011;74109;45.636;25.582;2024-02-21T13:47:14;15.30;;;7.40;;
84023;SDS011;74109;45.636;25.582;2024-02-21T13:49:45;10.10;;;4.60;;
84023;SDS011;74109;45.636;25.582;2024-02-21T13:52:12;11.60;;;4.60;;
84023;SDS011;74109;45.636;25.582;2024-02-21T13:54:38;33.70;;;14.50;;
84023;SDS011;74109;45.636;25.582;2024-02-21T13:57:06;17.30;;;7.70;;
84023;SDS011;74109;45.636;25.582;2024-02-21T13:59:33;66.40;;;30.50;;
84023;SDS011;74109;45.636;25.582;2024-02-21T14:02:01;24.10;;;9.90;;
84023;SDS011;74109;45.636;25.582;2024-02-21T14:04:28;32.40;;;14.30;;
84023;SDS011;74109;45.636;25.582;2024-02-21T14:06:57;14.20;;;6.30;;
84023;SDS011;74109;45.636;25.582;2024-02-21T14:09:26;24.30;;;10.40;;
84023;SDS011;74109;45.636;25.582;2024-02-21T14:11:53;12.40;;;5.00;;
84023;SDS011;74109;45.636;25.582;2024-02-21T14:14:24;9.60;;;4.90;;
84023;SDS011;74109;45.636;25.582;2024-02-21T14:16:51;8.30;;;3.80;;
84023;SDS011;74109;45.636;25.582;2024-02-21T14:19:24;11.60;;;5.20;;
84023;SDS011;74109;45.636;25.582;2024-02-21T14:21:52;20.50;;;9.00;;
84023;SDS011;74109;45.636;25.582;2024-02-21T14:24:19;14.40;;;6.00;;
84023;SDS011;74109;45.636;25.582;2024-02-21T14:26:46;24.90;;;10.50;;
84023;SDS011;74109;45.636;25.582;2024-02-21T14:29:15;17.70;;;7.70;;
84023;SDS011;74109;45.636;25.582;2024-02-21T14:31:42;25.90;;;10.50;;
84023;SDS011;74109;45.636;25.582;2024-02-21T14:34:09;18.80;;;8.40;;
84023;SDS011;74109;45.636;25.582;2024-02-21T14:36:37;24.40;;;9.80;;
84023;SDS011;74109;45.636;25.582;2024-02-21T14:39:15;11.80;;;4.30;;
84023;SDS011;74109;45.636;25.582;2024-02-21T14:41:43;14.20;;;6.00;;
84023;SDS011;74109;45.636;25.582;2024-02-21T14:44:13;14.10;;;6.00;;
84023;SDS011;74109;45.636;25.582;2024-02-21T14:46:41;14.30;;;5.40;;
84023;SDS011;74109;45.636;25.582;2024-02-21T14:49:09;7.40;;;3.10;;
84023;SDS011;74109;45.636;25.582;2024-02-21T14:51:37;11.40;;;4.50;;
84023;SDS011;74109;45.636;25.582;2024-02-21T14:54:04;10.40;;;3.90;;
84023;SDS011;74109;45.636;25.582;2024-02-21T14:56:32;9.20;;;3.60;;
84023;SDS011;74109;45.636;25.582;2024-02-21T14:58:59;13.80;;;5.50;;
84023;SDS011;74109;45.636;25.582;2024-02-21T15:01:37;16.10;;;7.60;;
84023;SDS011;74109;45.636;25.582;2024-02-21T15:04:07;15.00;;;6.50;;
84023;SDS011;74109;45.636;25.582;2024-02-21T15:06:35;17.40;;;7.00;;
84023;SDS011;74109;45.636;25.582;2024-02-21T15:09:03;15.20;;;7.20;;
84023;SDS011;74109;45.636;25.582;2024-02-21T15:11:32;12.70;;;5.70;;
84023;SDS011;74109;45.636;25.582;2024-02-21T15:14:00;11.50;;;5.20;;
84023;SDS011;74109;45.636;25.582;2024-02-21T15:16:31;11.40;;;5.00;;
84023;SDS011;74109;45.636;25.582;2024-02-21T15:18:58;11.30;;;5.90;;
84023;SDS011;74109;45.636;25.582;2024-02-21T15:21:25;12.80;;;4.50;;
84023;SDS011;74109;45.636;25.582;2024-02-21T15:23:55;11.60;;;5.20;;
84023;SDS011;74109;45.636;25.582;2024-02-21T15:26:25;10.80;;;5.40;;
84023;SDS011;74109;45.636;25.582;2024-02-21T15:28:52;10.00;;;3.80;;
84023;SDS011;74109;45.636;25.582;2024-02-21T15:31:19;7.90;;;3.40;;
84023;SDS011;74109;45.636;25.582;2024-02-21T15:33:52;10.30;;;4.90;;
84023;SDS011;74109;45.636;25.582;2024-02-21T15:36:19;8.30;;;3.50;;
84023;SDS011;74109;45.636;25.582;2024-02-21T15:38:46;10.00;;;3.90;;
84023;SDS011;74109;45.636;25.582;2024-02-21T15:41:14;12.10;;;4.30;;
84023;SDS011;74109;45.636;25.582;2024-02-21T15:43:41;10.10;;;4.80;;
84023;SDS011;74109;45.636;25.582;2024-02-21T15:46:11;10.10;;;4.60;;
84023;SDS011;74109;45.636;25.582;2024-02-21T15:48:39;10.90;;;4.20;;
84023;SDS011;74109;45.636;25.582;2024-02-21T15:51:06;11.60;;;4.50;;
84023;SDS011;74109;45.636;25.582;2024-02-21T15:53:33;9.50;;;4.20;;
84023;SDS011;74109;45.636;25.582;2024-02-21T15:56:00;7.60;;;3.80;;
84023;SDS011;74109;45.636;25.582;2024-02-21T15:58:27;10.60;;;4.50;;
84023;SDS011;74109;45.636;25.582;2024-02-21T16:00:54;10.00;;;4.20;;
84023;SDS011;74109;45.636;25.582;2024-02-21T16:03:20;10.60;;;5.10;;
84023;SDS011;74109;45.636;25.582;2024-02-21T16:05:49;12.10;;;4.80;;
84023;SDS011;74109;45.636;25.582;2024-02-21T16:08:16;9.80;;;4.00;;
84023;SDS011;74109;45.636;25.582;2024-02-21T16:10:48;11.40;;;5.30;;
84023;SDS011;74109;45.636;25.582;2024-02-21T16:13:15;17.90;;;6.30;;
84023;SDS011;74109;45.636;25.582;2024-02-21T16:15:42;12.50;;;5.20;;
84023;SDS011;74109;45.636;25.582;2024-02-21T16:18:09;15.80;;;6.20;;
84023;SDS011;74109;45.636;25.582;2024-02-21T16:20:36;11.60;;;4.90;;
84023;SDS011;74109;45.636;25.582;2024-02-21T16:23:04;11.10;;;5.50;;
84023;SDS011;74109;45.636;25.582;2024-02-21T16:25:31;10.00;;;5.30;;